Terminal Aerodrome Forecast
Issued by NWS

Home | Current Version | Previous Version | Text Only | Print | Product List | Glossary On
Versions: 1 2 3 4 5 6 7 8 9 10 11 12 13 14 15 16 17
441
FTUS44 KMAF 281724
TAFHOB
TAF
KHOB 281724Z 2818/2918 10010G16KT P6SM BKN060 BKN100
      TEMPO 2821/2901 VRB25G35KT 4SM TSRA BKN040CB
     FM290100 08006KT P6SM BKN050 BKN100
      TEMPO 2901/2905 VRB20G30KT 4SM TSRA BKN030CB
     FM290500 08006KT P6SM BKN040 BKN100
      TEMPO 2905/2909 4SM TSRA BR OVC020CB
     FM290900 06006KT P6SM BKN040 BKN100
      TEMPO 2909/2912 4SM TSRA BR OVC020CB=

USA.gov is the U.S. government's official web portal to all federal, state and local government web resources and services.